GOOY/DKR METAR and TAF weather

Enter ICAO airport designator
Station Type Date Time Source
GOOY METAR 2019/07/20 03:00 UTC NOAA

GOOY 200300Z 28006KT 8000 SCT011 24/21 Q1012


Station Type Date Time Source
GOOY Decoded METAR 2019/07/20 03:00 UTC NOAA

Dakar / Yoff, Senegal (GOOY) 14-44N 017-30W 24M
Jul 19, 2019 - 11:00 PM EDT / 2019.07.20 0300 UTC
Wind: from the W (280 degrees) at 7 MPH (6 KT):0
Visibility: 4 mile(s):0
Sky conditions: partly cloudy
Temperature: 75 F (24 C)
Dew Point: 69 F (21 C)
Relative Humidity: 83%
Pressure (altimeter): 29.88 in. Hg (1012 hPa)
ob: GOOY 200300Z 28006KT 8000 SCT011 24/21 Q1012
cycle: 3

Station Type Date Time Source
GOOY TAF 2019/07/20 00:00 UTC NOAA

TAF GOOY 192330Z 2000/2106 32010KT 9999 SCT013

Example: see airport list